createdAt,value
2022-08-14T00:02:05.489Z,34.30
2022-08-14T00:04:41.708Z,34.49
2022-08-14T00:07:11.000Z,34.37
2022-08-14T00:09:55.328Z,34.36
2022-08-14T00:12:33.497Z,33.96
2022-08-14T00:15:43.322Z,34.39
2022-08-14T00:18:14.355Z,33.80
2022-08-14T00:20:43.387Z,34.14
2022-08-14T00:23:16.650Z,33.81
2022-08-14T00:25:53.713Z,33.96
2022-08-14T00:28:35.661Z,33.89
2022-08-14T00:31:04.633Z,33.80
2022-08-14T00:33:51.048Z,34.17
2022-08-14T00:36:47.823Z,33.87
2022-08-14T00:39:09.622Z,34.25
2022-08-14T00:41:36.887Z,34.06
2022-08-14T00:44:07.211Z,34.20
2022-08-14T00:46:36.909Z,34.45
2022-08-14T00:49:05.871Z,34.58
2022-08-14T00:51:38.249Z,34.50
2022-08-14T00:54:16.890Z,34.55
2022-08-14T00:56:55.555Z,34.53
2022-08-14T00:59:26.302Z,34.73
2022-08-14T01:01:58.211Z,34.93
2022-08-14T01:04:37.821Z,35.01
2022-08-14T01:07:19.760Z,34.85
2022-08-14T01:09:49.800Z,35.00
2022-08-14T01:12:26.757Z,35.29
2022-08-14T01:15:02.179Z,35.18
2022-08-14T01:17:51.998Z,35.44
2022-08-14T01:20:40.966Z,36.14
2022-08-14T01:23:16.072Z,36.34
2022-08-14T01:25:46.214Z,36.67
2022-08-14T01:28:47.018Z,36.85
2022-08-14T01:31:01.769Z,37.10
2022-08-14T01:33:30.080Z,37.03
2022-08-14T01:36:05.307Z,37.21
2022-08-14T01:38:51.443Z,37.11
2022-08-14T01:41:22.889Z,36.97
2022-08-14T01:44:00.998Z,37.24
2022-08-14T01:46:37.135Z,37.11
2022-08-14T01:49:11.284Z,37.26
2022-08-14T01:51:40.989Z,37.19
2022-08-14T01:54:14.530Z,37.29
2022-08-14T01:56:42.794Z,37.27
2022-08-14T01:59:18.799Z,37.00
2022-08-14T02:01:58.623Z,37.87
2022-08-14T02:04:56.269Z,37.41
2022-08-14T02:07:34.949Z,37.24
2022-08-14T02:10:13.211Z,37.49
2022-08-14T02:12:46.183Z,37.70
2022-08-14T02:15:21.944Z,37.88
2022-08-14T02:17:49.947Z,38.25
2022-08-14T02:20:20.050Z,37.76
2022-08-14T02:22:54.834Z,37.97
2022-08-14T02:25:22.750Z,38.09
2022-08-14T02:28:24.454Z,38.15
2022-08-14T02:30:42.998Z,37.67
2022-08-14T02:33:10.799Z,37.90
2022-08-14T02:35:42.350Z,37.92
2022-08-14T02:38:11.844Z,37.81
2022-08-14T02:40:59.673Z,37.86
2022-08-14T02:43:36.797Z,37.91
2022-08-14T02:46:13.545Z,37.89
2022-08-14T02:49:04.488Z,38.30
2022-08-14T02:51:34.670Z,37.99
2022-08-14T02:54:04.976Z,38.22
2022-08-14T02:57:15.356Z,38.32
2022-08-14T02:59:21.108Z,38.50
2022-08-14T03:01:50.911Z,38.44
2022-08-14T03:04:22.631Z,38.69
2022-08-14T03:07:06.379Z,39.08
2022-08-14T03:09:42.414Z,39.09
2022-08-14T03:12:31.567Z,39.56
2022-08-14T03:15:02.730Z,39.16
2022-08-14T03:17:31.977Z,39.01
2022-08-14T03:20:11.230Z,39.13
2022-08-14T03:22:41.852Z,39.53
2022-08-14T03:25:10.770Z,39.41
2022-08-14T03:27:48.411Z,39.95
2022-08-14T03:30:39.856Z,39.94
2022-08-14T03:33:10.531Z,40.40
2022-08-14T03:35:59.759Z,40.04
2022-08-14T03:39:11.790Z,40.29
2022-08-14T03:41:19.495Z,41.05
2022-08-14T03:44:01.595Z,41.71
2022-08-14T03:46:54.762Z,41.50
2022-08-14T03:49:29.236Z,41.30
2022-08-14T03:52:00.393Z,41.10
2022-08-14T03:54:29.476Z,41.21
2022-08-14T03:57:02.490Z,41.41
2022-08-14T03:59:34.056Z,42.00
2022-08-14T04:02:04.671Z,42.08
2022-08-14T04:04:50.701Z,42.13
2022-08-14T04:07:17.439Z,42.59
2022-08-14T04:09:45.289Z,42.64
2022-08-14T04:12:13.471Z,42.79
2022-08-14T04:14:40.370Z,43.18
2022-08-14T04:17:09.911Z,43.39
2022-08-14T04:19:37.915Z,43.14
2022-08-14T04:22:04.778Z,42.96
2022-08-14T04:24:38.382Z,42.67
2022-08-14T04:27:11.817Z,42.81
2022-08-14T04:29:42.626Z,42.83
2022-08-14T04:33:02.886Z,42.88
2022-08-14T04:35:00.704Z,43.04
2022-08-14T04:37:46.322Z,43.14
2022-08-14T04:40:40.610Z,43.49
2022-08-14T04:43:38.480Z,43.44
2022-08-14T04:46:55.194Z,43.28
2022-08-14T04:48:59.902Z,43.47
2022-08-14T04:51:27.923Z,44.04
2022-08-14T04:53:56.869Z,43.46
2022-08-14T04:56:31.735Z,43.27
2022-08-14T04:59:09.906Z,42.92
2022-08-14T05:01:41.628Z,43.03
2022-08-14T05:04:16.309Z,42.64
2022-08-14T05:06:46.649Z,42.67
2022-08-14T05:09:17.259Z,42.77
2022-08-14T05:11:45.040Z,43.12
2022-08-14T05:14:16.972Z,42.86
2022-08-14T05:17:01.931Z,43.15
2022-08-14T05:19:29.998Z,42.33
2022-08-14T05:22:16.453Z,41.79
2022-08-14T05:24:49.713Z,41.34
2022-08-14T05:27:22.719Z,41.04
2022-08-14T05:29:57.137Z,40.58
2022-08-14T05:32:27.400Z,40.52
2022-08-14T05:34:58.123Z,39.62
2022-08-14T05:37:27.148Z,39.00
2022-08-14T05:39:55.115Z,38.03
2022-08-14T05:42:26.885Z,36.92
2022-08-14T05:44:56.176Z,36.64
2022-08-14T05:47:24.067Z,35.94
2022-08-14T05:49:51.662Z,36.45
2022-08-14T05:52:34.222Z,35.69
2022-08-14T05:55:08.495Z,35.87
2022-08-14T05:57:47.236Z,35.09
2022-08-14T06:00:28.393Z,34.60
2022-08-14T06:03:00.164Z,34.49
2022-08-14T06:05:28.693Z,34.84
2022-08-14T06:07:58.144Z,34.58
2022-08-14T06:10:28.145Z,33.67
2022-08-14T06:12:57.921Z,33.18
2022-08-14T06:15:30.010Z,32.65
2022-08-14T06:17:59.846Z,32.27
2022-08-14T06:20:28.652Z,32.10
2022-08-14T06:22:57.805Z,31.74
2022-08-14T06:25:27.163Z,31.73
2022-08-14T06:27:54.972Z,31.59
2022-08-14T06:30:30.458Z,31.35
2022-08-14T06:33:12.104Z,30.85
2022-08-14T06:35:42.804Z,30.23
2022-08-14T06:38:17.346Z,30.13
2022-08-14T06:40:45.105Z,29.08
2022-08-14T06:43:15.351Z,28.63
2022-08-14T06:45:43.732Z,28.07
2022-08-14T06:48:23.731Z,27.90
2022-08-14T06:50:52.758Z,28.56
2022-08-14T06:53:20.848Z,28.89
2022-08-14T06:55:56.194Z,30.23
2022-08-14T06:58:28.788Z,31.30
2022-08-14T07:01:14.765Z,33.19
2022-08-14T07:04:01.186Z,35.48
2022-08-14T07:06:46.746Z,36.21
2022-08-14T07:09:19.874Z,37.03
2022-08-14T07:11:51.691Z,36.65
2022-08-14T07:14:18.848Z,36.01
2022-08-14T07:16:45.870Z,35.47
2022-08-14T07:19:12.694Z,34.40
2022-08-14T07:21:39.651Z,33.66
2022-08-14T07:24:09.793Z,32.69
2022-08-14T07:26:49.066Z,31.78
2022-08-14T07:29:17.447Z,31.57
2022-08-14T07:31:44.880Z,31.22
2022-08-14T07:34:13.444Z,30.44
2022-08-14T07:37:01.136Z,30.06
2022-08-14T07:39:28.284Z,29.50
2022-08-14T07:41:55.164Z,30.04
2022-08-14T07:44:28.708Z,30.00
2022-08-14T07:46:56.622Z,29.44
2022-08-14T07:49:24.656Z,28.80
2022-08-14T07:51:51.404Z,28.96
2022-08-14T07:54:23.368Z,28.40
2022-08-14T07:57:11.954Z,27.75
2022-08-14T07:59:43.747Z,26.30
2022-08-14T08:02:19.116Z,26.08
2022-08-14T08:04:55.104Z,25.15
2022-08-14T08:07:30.820Z,24.66
2022-08-14T08:10:01.107Z,23.65
2022-08-14T08:12:32.169Z,23.16
2022-08-14T08:15:03.052Z,22.97
2022-08-14T08:17:42.357Z,21.89
2022-08-14T08:20:20.186Z,22.29
2022-08-14T08:22:56.029Z,22.25
2022-08-14T08:25:27.526Z,21.35
2022-08-14T08:27:59.247Z,21.81
2022-08-14T08:30:27.455Z,21.57
2022-08-14T08:32:58.149Z,20.75
2022-08-14T08:35:46.499Z,19.16
2022-08-14T08:39:18.146Z,19.10
2022-08-14T08:41:04.898Z,18.23
2022-08-14T08:43:37.001Z,17.70
2022-08-14T08:46:06.727Z,17.27
2022-08-14T08:48:54.208Z,16.01
2022-08-14T08:51:43.131Z,15.17
2022-08-14T08:54:19.920Z,15.44
2022-08-14T08:56:53.233Z,14.70
2022-08-14T08:59:31.095Z,15.73
2022-08-14T09:02:10.292Z,15.63
2022-08-14T09:04:45.356Z,14.83
2022-08-14T09:07:26.835Z,14.16
2022-08-14T09:09:59.031Z,14.53
2022-08-14T09:12:32.381Z,14.27
2022-08-14T09:15:14.124Z,13.56
2022-08-14T09:17:42.574Z,13.69
2022-08-14T09:20:12.530Z,13.30
2022-08-14T09:22:47.896Z,12.66
2022-08-14T09:25:19.916Z,13.37
2022-08-14T09:28:06.528Z,12.45
2022-08-14T09:30:37.680Z,12.11
2022-08-14T09:33:28.194Z,11.77
2022-08-14T09:36:15.582Z,11.45
2022-08-14T09:38:54.383Z,12.27
2022-08-14T09:42:21.369Z,12.83
2022-08-14T09:44:49.612Z,12.45
2022-08-14T09:47:17.301Z,12.35
2022-08-14T09:49:52.934Z,12.46
2022-08-14T09:52:33.427Z,12.67
2022-08-14T09:55:02.813Z,12.49
2022-08-14T09:57:32.333Z,12.04
2022-08-14T10:00:27.198Z,12.24
2022-08-14T10:03:05.635Z,12.14
2022-08-14T10:05:39.204Z,12.46
2022-08-14T10:08:26.322Z,12.57
2022-08-14T10:10:57.223Z,12.87
2022-08-14T10:13:43.152Z,12.16
2022-08-14T10:16:25.843Z,11.38
2022-08-14T10:19:09.405Z,10.29
2022-08-14T10:23:13.549Z,9.85
2022-08-14T10:24:37.353Z,9.26
2022-08-14T10:27:05.480Z,10.05
2022-08-14T10:29:33.680Z,11.17
2022-08-14T10:32:01.687Z,11.25
2022-08-14T10:34:40.138Z,11.58
2022-08-14T10:37:14.776Z,12.45
2022-08-14T10:39:51.179Z,12.17
2022-08-14T10:42:40.248Z,11.92
2022-08-14T10:45:25.866Z,11.63
2022-08-14T10:48:08.911Z,11.07
2022-08-14T10:50:42.405Z,11.11
2022-08-14T10:53:09.390Z,10.96
2022-08-14T10:55:45.388Z,11.10
2022-08-14T10:58:14.812Z,10.25
2022-08-14T11:00:55.485Z,10.30
2022-08-14T11:03:26.596Z,9.30
2022-08-14T11:06:19.943Z,9.58
2022-08-14T11:08:49.052Z,9.15
2022-08-14T11:11:18.597Z,9.16
2022-08-14T11:13:46.549Z,8.62
2022-08-14T11:16:15.941Z,8.34
2022-08-14T11:18:50.875Z,8.07
2022-08-14T11:21:21.938Z,8.38
2022-08-14T11:23:53.789Z,9.31
2022-08-14T11:26:27.921Z,9.53
2022-08-14T11:29:00.229Z,8.91
2022-08-14T11:31:38.800Z,9.60
2022-08-14T11:34:06.106Z,9.28
2022-08-14T11:37:02.513Z,8.92
2022-08-14T11:39:39.905Z,8.86
2022-08-14T11:43:07.844Z,8.47
2022-08-14T11:45:00.781Z,8.60
2022-08-14T11:47:35.390Z,9.42
2022-08-14T11:50:25.055Z,10.13
2022-08-14T11:53:04.522Z,10.87
2022-08-14T11:55:39.420Z,11.35
2022-08-14T11:58:09.548Z,11.53
2022-08-14T12:00:52.603Z,11.18
2022-08-14T12:03:37.436Z,10.84
2022-08-14T12:06:27.986Z,10.94
2022-08-14T12:09:00.043Z,12.42
2022-08-14T12:11:43.377Z,13.01
2022-08-14T12:14:13.462Z,12.69
2022-08-14T12:17:02.063Z,11.94
2022-08-14T12:19:33.438Z,11.85
2022-08-14T12:22:02.729Z,11.87
2022-08-14T12:24:36.270Z,12.14
2022-08-14T12:27:03.989Z,11.56
2022-08-14T12:29:31.817Z,11.55
2022-08-14T12:32:06.648Z,11.06
2022-08-14T12:34:37.233Z,11.18
2022-08-14T12:37:08.934Z,10.98
2022-08-14T12:39:39.920Z,11.11
2022-08-14T12:42:07.930Z,11.59
2022-08-14T12:44:42.642Z,11.54
2022-08-14T12:47:21.091Z,12.18
2022-08-14T12:49:49.581Z,12.12
2022-08-14T12:52:47.450Z,12.29
2022-08-14T12:55:32.521Z,12.30
2022-08-14T12:58:34.915Z,12.78
2022-08-14T13:01:17.029Z,12.25
2022-08-14T13:03:49.082Z,13.10
2022-08-14T13:06:20.406Z,13.22
2022-08-14T13:08:52.990Z,12.99
2022-08-14T13:11:23.754Z,13.45
2022-08-14T13:13:57.958Z,13.07
2022-08-14T13:16:33.614Z,13.56
2022-08-14T13:19:11.763Z,13.24
2022-08-14T13:21:58.249Z,13.36
2022-08-14T13:24:27.947Z,13.40
2022-08-14T13:26:58.254Z,13.54
2022-08-14T13:29:29.639Z,13.16
2022-08-14T13:31:58.706Z,13.46
2022-08-14T13:34:28.611Z,12.96
2022-08-14T13:37:03.900Z,12.74
2022-08-14T13:39:36.011Z,13.22
2022-08-14T13:42:08.558Z,13.79
2022-08-14T13:44:43.048Z,12.96
2022-08-14T13:47:14.852Z,12.85
2022-08-14T13:49:57.057Z,12.79
2022-08-14T13:52:52.721Z,13.03
2022-08-14T13:55:15.613Z,12.67
2022-08-14T13:57:49.732Z,12.79
2022-08-14T14:00:53.041Z,13.50
2022-08-14T14:03:23.365Z,13.81
2022-08-14T14:05:54.359Z,13.58
2022-08-14T14:08:46.022Z,14.24
2022-08-14T14:11:11.408Z,14.52
2022-08-14T14:13:41.870Z,14.46
2022-08-14T14:16:15.083Z,14.12
2022-08-14T14:18:48.860Z,14.29
2022-08-14T14:21:21.881Z,14.48
2022-08-14T14:23:49.190Z,14.50
2022-08-14T14:26:23.133Z,14.51
2022-08-14T14:28:55.319Z,14.94
2022-08-14T14:31:30.836Z,15.45
2022-08-14T14:34:07.542Z,15.16
2022-08-14T14:36:43.610Z,15.34
2022-08-14T14:39:11.121Z,15.53
2022-08-14T14:41:44.090Z,15.66
2022-08-14T14:44:13.470Z,16.05
2022-08-14T14:46:44.500Z,15.80
2022-08-14T14:49:14.419Z,16.17
2022-08-14T14:51:46.583Z,16.08
2022-08-14T14:54:31.658Z,16.63
2022-08-14T14:57:04.879Z,16.85
2022-08-14T14:59:37.434Z,16.80
2022-08-14T15:02:07.785Z,17.25
2022-08-14T15:04:37.908Z,17.12
2022-08-14T15:07:06.576Z,17.01
2022-08-14T15:09:34.470Z,17.00
2022-08-14T15:12:02.556Z,16.74
2022-08-14T15:14:55.949Z,17.00
2022-08-14T15:17:24.978Z,16.81
2022-08-14T15:19:57.068Z,17.46
2022-08-14T15:22:25.262Z,17.65
2022-08-14T15:24:52.245Z,17.69
2022-08-14T15:27:26.374Z,17.83
2022-08-14T15:29:53.855Z,16.75
2022-08-14T15:32:23.220Z,17.00
2022-08-14T15:34:51.475Z,18.55
2022-08-14T15:37:22.187Z,16.52
2022-08-14T15:39:54.689Z,17.85
2022-08-14T15:42:23.365Z,18.13
2022-08-14T15:44:56.827Z,17.99
2022-08-14T15:47:28.064Z,18.05
2022-08-14T15:50:00.281Z,17.58
2022-08-14T15:52:33.092Z,18.11
2022-08-14T15:55:08.966Z,19.27
2022-08-14T15:57:36.982Z,18.75
2022-08-14T16:00:41.839Z,18.53
2022-08-14T16:03:14.270Z,18.05
2022-08-14T16:05:43.918Z,18.98
2022-08-14T16:08:27.200Z,18.70
2022-08-14T16:10:59.988Z,18.68
2022-08-14T16:13:41.975Z,19.37
2022-08-14T16:16:48.005Z,19.80
2022-08-14T16:19:11.068Z,20.11
2022-08-14T16:21:40.718Z,19.85
2022-08-14T16:24:29.129Z,20.50
2022-08-14T16:27:00.701Z,20.66
2022-08-14T16:29:35.654Z,20.65
2022-08-14T16:32:33.630Z,20.84
2022-08-14T16:34:54.748Z,20.82
2022-08-14T16:37:30.457Z,20.87
2022-08-14T16:39:59.307Z,21.10
2022-08-14T16:43:02.843Z,21.46
2022-08-14T16:45:18.419Z,22.04
2022-08-14T16:47:47.855Z,22.33
2022-08-14T16:50:40.510Z,22.38
2022-08-14T16:53:07.197Z,22.62
2022-08-14T16:55:34.417Z,22.67
2022-08-14T16:58:21.290Z,23.01
2022-08-14T17:01:22.848Z,23.55
2022-08-14T17:04:08.581Z,23.47
2022-08-14T17:06:42.972Z,23.48
2022-08-14T17:09:45.396Z,23.28
2022-08-14T17:12:28.976Z,24.01
2022-08-14T17:15:10.139Z,23.95
2022-08-14T17:17:57.744Z,23.97
2022-08-14T17:21:01.768Z,24.17
2022-08-14T17:23:12.256Z,24.09
2022-08-14T17:25:40.618Z,24.55
2022-08-14T17:28:51.691Z,25.56
2022-08-14T17:31:12.408Z,24.54
2022-08-14T17:33:40.836Z,25.12
2022-08-14T17:36:23.898Z,24.89
2022-08-14T17:39:07.936Z,24.85
2022-08-14T17:41:43.925Z,25.29
2022-08-14T17:44:44.824Z,25.11
2022-08-14T17:47:14.552Z,25.02
2022-08-14T17:49:51.521Z,25.20
2022-08-14T17:52:35.995Z,25.11
2022-08-14T17:55:12.691Z,24.99
2022-08-14T17:57:58.541Z,25.25
2022-08-14T18:00:25.426Z,24.89
2022-08-14T18:02:54.318Z,24.85
2022-08-14T18:05:22.847Z,24.95
2022-08-14T18:07:59.900Z,24.78
2022-08-14T18:10:55.547Z,25.27
2022-08-14T18:13:49.813Z,25.36
2022-08-14T18:16:19.963Z,25.16
2022-08-14T18:18:49.774Z,24.96
2022-08-14T18:21:42.799Z,25.10
2022-08-14T18:24:28.736Z,25.25
2022-08-14T18:27:08.841Z,25.15
2022-08-14T18:29:43.955Z,25.66
2022-08-14T18:32:29.295Z,25.30
2022-08-14T18:35:00.021Z,25.90
2022-08-14T18:37:27.164Z,25.79
2022-08-14T18:40:03.224Z,25.64
2022-08-14T18:42:35.033Z,25.83
2022-08-14T18:45:02.197Z,25.88
2022-08-14T18:48:03.596Z,25.99
2022-08-14T18:50:32.374Z,26.30
2022-08-14T18:53:10.817Z,26.27
2022-08-14T18:55:53.473Z,26.53
2022-08-14T18:58:45.756Z,26.25
2022-08-14T19:01:26.407Z,26.48
2022-08-14T19:03:57.579Z,26.26
2022-08-14T19:06:40.164Z,26.54
2022-08-14T19:09:08.231Z,26.99
2022-08-14T19:11:35.156Z,26.82
2022-08-14T19:14:04.622Z,27.26
2022-08-14T19:16:43.070Z,27.69
2022-08-14T19:19:20.353Z,28.47
2022-08-14T19:21:56.177Z,28.65
2022-08-14T19:24:44.286Z,29.72
2022-08-14T19:27:23.497Z,29.79
2022-08-14T19:30:20.445Z,30.11
2022-08-14T19:32:57.064Z,30.37
2022-08-14T19:35:41.646Z,30.28
2022-08-14T19:38:51.938Z,30.95
2022-08-14T19:41:37.855Z,30.85
2022-08-14T19:44:10.224Z,31.03
2022-08-14T19:47:01.225Z,31.70
2022-08-14T19:50:08.463Z,32.00
2022-08-14T19:53:05.030Z,32.40
2022-08-14T19:55:45.618Z,32.25
2022-08-14T19:58:13.198Z,31.47
2022-08-14T20:00:52.863Z,31.46
2022-08-14T20:03:24.836Z,31.15
2022-08-14T20:06:05.633Z,31.14
2022-08-14T20:10:59.682Z,31.93
2022-08-14T20:12:00.799Z,32.07
2022-08-14T20:14:23.652Z,32.66
2022-08-14T20:17:06.340Z,33.16
2022-08-14T20:19:37.914Z,33.70
2022-08-14T20:22:36.201Z,33.41
2022-08-14T20:25:11.387Z,33.74
2022-08-14T20:27:40.845Z,34.16
2022-08-14T20:33:01.312Z,34.62
2022-08-14T20:35:35.635Z,34.63
2022-08-14T20:38:31.406Z,34.63
2022-08-14T20:41:06.907Z,35.42
2022-08-14T20:43:57.828Z,36.18
2022-08-14T20:46:30.027Z,35.77
2022-08-14T20:49:08.515Z,36.16
2022-08-14T20:51:43.643Z,36.46
2022-08-14T20:54:33.451Z,36.17
2022-08-14T20:57:14.680Z,36.49
2022-08-14T20:59:44.035Z,36.94
2022-08-14T21:02:29.327Z,37.28
2022-08-14T21:05:00.815Z,37.50
2022-08-14T21:07:36.473Z,37.71
2022-08-14T21:10:35.197Z,37.93
2022-08-14T21:13:27.278Z,38.48
2022-08-14T21:15:57.235Z,38.41
2022-08-14T21:18:32.369Z,38.59
2022-08-14T21:21:07.779Z,38.53
2022-08-14T21:23:54.492Z,38.78
2022-08-14T21:26:33.291Z,38.52
2022-08-14T21:29:14.301Z,39.37
2022-08-14T21:31:55.398Z,39.73
2022-08-14T21:34:31.537Z,39.32
2022-08-14T21:37:07.915Z,39.83
2022-08-14T21:39:36.309Z,40.59
2022-08-14T21:42:05.840Z,41.10
2022-08-14T21:44:42.878Z,41.31
2022-08-14T21:47:11.089Z,42.17
2022-08-14T21:49:38.870Z,41.99
2022-08-14T21:52:51.794Z,42.65
2022-08-14T21:55:08.890Z,42.19
2022-08-14T21:58:51.342Z,41.90
2022-08-14T22:00:42.009Z,42.54
2022-08-14T22:03:17.204Z,42.89
2022-08-14T22:05:46.455Z,42.74
2022-08-14T22:08:14.080Z,42.75
2022-08-14T22:10:44.666Z,42.93
2022-08-14T22:13:15.986Z,42.77
2022-08-14T22:15:49.576Z,42.28
2022-08-14T22:18:20.276Z,43.12
2022-08-14T22:20:53.995Z,43.17
2022-08-14T22:23:24.773Z,42.63
2022-08-14T22:25:53.509Z,43.08
2022-08-14T22:28:25.317Z,43.22
2022-08-14T22:30:55.052Z,42.69
2022-08-14T22:33:31.214Z,42.71
2022-08-14T22:36:00.445Z,43.09
2022-08-14T22:38:37.832Z,42.93
2022-08-14T22:41:27.648Z,43.52
2022-08-14T22:43:56.677Z,43.06
2022-08-14T22:46:26.327Z,43.30
2022-08-14T22:48:53.888Z,43.22
2022-08-14T22:51:26.093Z,43.04
2022-08-14T22:53:58.219Z,43.14
2022-08-14T22:56:30.090Z,43.20
2022-08-14T22:59:00.367Z,43.14
2022-08-14T23:01:57.050Z,43.22
2022-08-14T23:04:35.248Z,43.59
2022-08-14T23:07:21.651Z,43.57
2022-08-14T23:10:32.146Z,43.04
2022-08-14T23:12:54.582Z,43.88
2022-08-14T23:15:23.645Z,43.49
2022-08-14T23:17:51.175Z,43.57
2022-08-14T23:20:21.387Z,43.48
2022-08-14T23:22:52.567Z,43.59
2022-08-14T23:25:44.729Z,43.50
2022-08-14T23:28:34.939Z,43.52
2022-08-14T23:31:05.618Z,44.06
2022-08-14T23:33:34.575Z,43.39
2022-08-14T23:36:04.591Z,44.30
2022-08-14T23:38:52.421Z,44.67
2022-08-14T23:41:21.673Z,44.29
2022-08-14T23:43:54.390Z,44.01
2022-08-14T23:46:22.686Z,44.10
2022-08-14T23:49:02.225Z,44.72
2022-08-14T23:51:29.293Z,44.94
2022-08-14T23:54:05.324Z,44.91
2022-08-14T23:57:02.688Z,44.83
2022-08-14T23:59:30.205Z,44.99
